sensor_id;sensor_type;location;lat;lon;timestamp;P1;durP1;ratioP1;P2;durP2;ratioP2
1308;SDS011;647;48.840;9.314;2023-09-19T00:00:30;56.13;;;2.00;;
1308;SDS011;647;48.840;9.314;2023-09-19T00:02:58;56.17;;;2.10;;
1308;SDS011;647;48.840;9.314;2023-09-19T00:05:27;56.70;;;2.30;;
1308;SDS011;647;48.840;9.314;2023-09-19T00:07:55;56.40;;;2.20;;
1308;SDS011;647;48.840;9.314;2023-09-19T00:10:23;56.43;;;2.03;;
1308;SDS011;647;48.840;9.314;2023-09-19T00:12:52;56.57;;;2.30;;
1308;SDS011;647;48.840;9.314;2023-09-19T00:15:20;56.57;;;2.03;;
1308;SDS011;647;48.840;9.314;2023-09-19T00:17:47;56.47;;;2.17;;
1308;SDS011;647;48.840;9.314;2023-09-19T00:20:17;56.47;;;2.00;;
1308;SDS011;647;48.840;9.314;2023-09-19T00:22:45;60.03;;;2.20;;
1308;SDS011;647;48.840;9.314;2023-09-19T00:25:13;56.70;;;2.40;;
1308;SDS011;647;48.840;9.314;2023-09-19T00:27:40;56.80;;;2.37;;
1308;SDS011;647;48.840;9.314;2023-09-19T00:30:08;56.37;;;2.10;;
1308;SDS011;647;48.840;9.314;2023-09-19T00:32:39;56.47;;;2.43;;
1308;SDS011;647;48.840;9.314;2023-09-19T00:35:06;56.47;;;2.17;;
1308;SDS011;647;48.840;9.314;2023-09-19T00:37:35;56.37;;;2.20;;
1308;SDS011;647;48.840;9.314;2023-09-19T00:40:04;56.83;;;2.43;;
1308;SDS011;647;48.840;9.314;2023-09-19T00:42:34;56.57;;;2.40;;
1308;SDS011;647;48.840;9.314;2023-09-19T00:45:03;56.57;;;2.20;;
1308;SDS011;647;48.840;9.314;2023-09-19T00:47:31;56.37;;;2.10;;
1308;SDS011;647;48.840;9.314;2023-09-19T00:49:58;56.80;;;2.67;;
1308;SDS011;647;48.840;9.314;2023-09-19T00:52:25;56.27;;;2.10;;
1308;SDS011;647;48.840;9.314;2023-09-19T00:54:53;56.50;;;2.10;;
1308;SDS011;647;48.840;9.314;2023-09-19T00:57:22;56.23;;;2.00;;
1308;SDS011;647;48.840;9.314;2023-09-19T00:59:50;56.37;;;2.20;;
1308;SDS011;647;48.840;9.314;2023-09-19T01:02:19;56.43;;;2.00;;
1308;SDS011;647;48.840;9.314;2023-09-19T01:04:46;56.50;;;2.70;;
1308;SDS011;647;48.840;9.314;2023-09-19T01:07:13;56.27;;;2.10;;
1308;SDS011;647;48.840;9.314;2023-09-19T01:09:40;56.30;;;2.73;;
1308;SDS011;647;48.840;9.314;2023-09-19T01:12:08;56.60;;;2.20;;
1308;SDS011;647;48.840;9.314;2023-09-19T01:14:41;56.47;;;2.33;;
1308;SDS011;647;48.840;9.314;2023-09-19T01:17:09;56.67;;;2.13;;
1308;SDS011;647;48.840;9.314;2023-09-19T01:19:50;56.47;;;2.30;;
1308;SDS011;647;48.840;9.314;2023-09-19T01:22:25;56.50;;;2.23;;
1308;SDS011;647;48.840;9.314;2023-09-19T01:27:50;56.60;;;2.20;;
1308;SDS011;647;48.840;9.314;2023-09-19T01:30:24;56.60;;;2.27;;
1308;SDS011;647;48.840;9.314;2023-09-19T01:32:54;56.47;;;2.30;;
1308;SDS011;647;48.840;9.314;2023-09-19T01:35:22;56.80;;;2.20;;
1308;SDS011;647;48.840;9.314;2023-09-19T01:37:49;56.50;;;2.20;;
1308;SDS011;647;48.840;9.314;2023-09-19T01:40:18;56.43;;;2.47;;
1308;SDS011;647;48.840;9.314;2023-09-19T01:42:49;56.47;;;2.10;;
1308;SDS011;647;48.840;9.314;2023-09-19T01:45:19;56.17;;;2.13;;
1308;SDS011;647;48.840;9.314;2023-09-19T01:47:51;56.30;;;2.50;;
1308;SDS011;647;48.840;9.314;2023-09-19T01:50:23;56.27;;;2.10;;
1308;SDS011;647;48.840;9.314;2023-09-19T01:52:54;56.20;;;2.03;;
1308;SDS011;647;48.840;9.314;2023-09-19T01:55:26;56.60;;;2.20;;
1308;SDS011;647;48.840;9.314;2023-09-19T01:57:58;56.20;;;2.10;;
1308;SDS011;647;48.840;9.314;2023-09-19T02:00:29;56.27;;;2.00;;
1308;SDS011;647;48.840;9.314;2023-09-19T02:02:59;56.17;;;2.20;;
1308;SDS011;647;48.840;9.314;2023-09-19T02:05:27;56.37;;;2.00;;
1308;SDS011;647;48.840;9.314;2023-09-19T02:07:54;56.27;;;2.00;;
1308;SDS011;647;48.840;9.314;2023-09-19T02:10:22;56.33;;;2.00;;
1308;SDS011;647;48.840;9.314;2023-09-19T02:12:49;56.30;;;1.90;;
1308;SDS011;647;48.840;9.314;2023-09-19T02:15:16;56.50;;;1.90;;
1308;SDS011;647;48.840;9.314;2023-09-19T02:17:44;56.47;;;2.10;;
1308;SDS011;647;48.840;9.314;2023-09-19T02:20:12;56.50;;;2.00;;
1308;SDS011;647;48.840;9.314;2023-09-19T02:22:40;56.30;;;2.00;;
1308;SDS011;647;48.840;9.314;2023-09-19T02:25:07;56.60;;;2.20;;
1308;SDS011;647;48.840;9.314;2023-09-19T02:27:35;56.23;;;2.10;;
1308;SDS011;647;48.840;9.314;2023-09-19T02:30:02;56.07;;;1.97;;
1308;SDS011;647;48.840;9.314;2023-09-19T02:35:35;56.17;;;1.90;;
1308;SDS011;647;48.840;9.314;2023-09-19T02:38:03;56.70;;;2.63;;
1308;SDS011;647;48.840;9.314;2023-09-19T02:40:31;56.20;;;2.03;;
1308;SDS011;647;48.840;9.314;2023-09-19T02:43:02;56.17;;;2.10;;
1308;SDS011;647;48.840;9.314;2023-09-19T02:45:30;56.17;;;1.83;;
1308;SDS011;647;48.840;9.314;2023-09-19T02:47:57;56.27;;;1.90;;
1308;SDS011;647;48.840;9.314;2023-09-19T02:50:24;56.20;;;2.00;;
1308;SDS011;647;48.840;9.314;2023-09-19T02:52:53;56.17;;;2.07;;
1308;SDS011;647;48.840;9.314;2023-09-19T02:55:20;56.40;;;2.20;;
1308;SDS011;647;48.840;9.314;2023-09-19T02:57:48;56.47;;;2.20;;
1308;SDS011;647;48.840;9.314;2023-09-19T03:00:16;56.40;;;1.83;;
1308;SDS011;647;48.840;9.314;2023-09-19T03:02:46;56.30;;;2.10;;
1308;SDS011;647;48.840;9.314;2023-09-19T03:05:14;56.70;;;2.17;;
1308;SDS011;647;48.840;9.314;2023-09-19T03:07:41;56.27;;;2.17;;
1308;SDS011;647;48.840;9.314;2023-09-19T03:10:12;56.20;;;2.10;;
1308;SDS011;647;48.840;9.314;2023-09-19T03:12:40;56.37;;;2.30;;
1308;SDS011;647;48.840;9.314;2023-09-19T03:15:07;56.40;;;2.30;;
1308;SDS011;647;48.840;9.314;2023-09-19T03:17:35;55.93;;;2.00;;
1308;SDS011;647;48.840;9.314;2023-09-19T03:20:02;56.13;;;1.83;;
1308;SDS011;647;48.840;9.314;2023-09-19T03:22:33;56.17;;;1.80;;
1308;SDS011;647;48.840;9.314;2023-09-19T03:25:00;56.27;;;1.97;;
1308;SDS011;647;48.840;9.314;2023-09-19T03:27:33;56.87;;;2.10;;
1308;SDS011;647;48.840;9.314;2023-09-19T03:30:00;56.17;;;1.90;;
1308;SDS011;647;48.840;9.314;2023-09-19T03:32:30;56.17;;;1.97;;
1308;SDS011;647;48.840;9.314;2023-09-19T03:34:58;56.23;;;1.90;;
1308;SDS011;647;48.840;9.314;2023-09-19T03:37:25;56.60;;;1.90;;
1308;SDS011;647;48.840;9.314;2023-09-19T03:39:52;56.30;;;2.20;;
1308;SDS011;647;48.840;9.314;2023-09-19T03:42:19;56.30;;;2.10;;
1308;SDS011;647;48.840;9.314;2023-09-19T03:44:51;56.17;;;2.00;;
1308;SDS011;647;48.840;9.314;2023-09-19T03:47:20;56.47;;;2.10;;
1308;SDS011;647;48.840;9.314;2023-09-19T03:49:47;56.50;;;2.20;;
1308;SDS011;647;48.840;9.314;2023-09-19T03:52:14;56.27;;;2.20;;
1308;SDS011;647;48.840;9.314;2023-09-19T03:54:42;56.37;;;2.30;;
1308;SDS011;647;48.840;9.314;2023-09-19T03:57:09;57.47;;;2.40;;
1308;SDS011;647;48.840;9.314;2023-09-19T03:59:37;56.17;;;2.00;;
1308;SDS011;647;48.840;9.314;2023-09-19T04:02:08;56.30;;;2.00;;
1308;SDS011;647;48.840;9.314;2023-09-19T04:04:46;57.90;;;4.30;;
1308;SDS011;647;48.840;9.314;2023-09-19T04:07:13;56.07;;;2.20;;
1308;SDS011;647;48.840;9.314;2023-09-19T04:09:41;56.50;;;2.10;;
1308;SDS011;647;48.840;9.314;2023-09-19T04:12:08;61.80;;;2.20;;
1308;SDS011;647;48.840;9.314;2023-09-19T04:14:35;56.47;;;2.30;;
1308;SDS011;647;48.840;9.314;2023-09-19T04:17:03;56.33;;;2.07;;
1308;SDS011;647;48.840;9.314;2023-09-19T04:19:31;56.13;;;2.13;;
1308;SDS011;647;48.840;9.314;2023-09-19T04:21:58;56.37;;;2.10;;
1308;SDS011;647;48.840;9.314;2023-09-19T04:24:26;56.20;;;2.10;;
1308;SDS011;647;48.840;9.314;2023-09-19T04:26:53;56.13;;;2.47;;
1308;SDS011;647;48.840;9.314;2023-09-19T04:29:20;56.20;;;2.13;;
1308;SDS011;647;48.840;9.314;2023-09-19T04:31:47;56.47;;;2.20;;
1308;SDS011;647;48.840;9.314;2023-09-19T04:34:14;56.40;;;2.10;;
1308;SDS011;647;48.840;9.314;2023-09-19T04:36:43;56.27;;;2.00;;
1308;SDS011;647;48.840;9.314;2023-09-19T04:39:10;56.60;;;2.30;;
1308;SDS011;647;48.840;9.314;2023-09-19T04:41:38;56.23;;;2.00;;
1308;SDS011;647;48.840;9.314;2023-09-19T04:44:06;56.70;;;2.40;;
1308;SDS011;647;48.840;9.314;2023-09-19T04:46:34;56.47;;;2.17;;
1308;SDS011;647;48.840;9.314;2023-09-19T04:49:01;56.40;;;2.33;;
1308;SDS011;647;48.840;9.314;2023-09-19T04:51:28;56.47;;;2.20;;
1308;SDS011;647;48.840;9.314;2023-09-19T04:54:00;56.77;;;2.40;;
1308;SDS011;647;48.840;9.314;2023-09-19T04:56:27;56.23;;;2.30;;
1308;SDS011;647;48.840;9.314;2023-09-19T04:58:55;56.50;;;2.23;;
1308;SDS011;647;48.840;9.314;2023-09-19T05:01:22;56.50;;;2.13;;
1308;SDS011;647;48.840;9.314;2023-09-19T05:03:49;56.47;;;2.30;;
1308;SDS011;647;48.840;9.314;2023-09-19T05:06:17;56.50;;;2.10;;
1308;SDS011;647;48.840;9.314;2023-09-19T05:08:46;57.17;;;2.60;;
1308;SDS011;647;48.840;9.314;2023-09-19T05:11:16;56.40;;;2.53;;
1308;SDS011;647;48.840;9.314;2023-09-19T05:13:43;56.57;;;2.30;;
1308;SDS011;647;48.840;9.314;2023-09-19T05:16:10;56.33;;;2.40;;
1308;SDS011;647;48.840;9.314;2023-09-19T05:18:37;56.27;;;2.33;;
1308;SDS011;647;48.840;9.314;2023-09-19T05:21:05;56.40;;;2.37;;
1308;SDS011;647;48.840;9.314;2023-09-19T05:23:32;56.40;;;2.40;;
1308;SDS011;647;48.840;9.314;2023-09-19T05:25:59;56.60;;;2.37;;
1308;SDS011;647;48.840;9.314;2023-09-19T05:28:28;56.90;;;2.60;;
1308;SDS011;647;48.840;9.314;2023-09-19T05:30:55;56.50;;;2.40;;
1308;SDS011;647;48.840;9.314;2023-09-19T05:33:22;56.70;;;3.00;;
1308;SDS011;647;48.840;9.314;2023-09-19T05:35:49;56.43;;;2.50;;
1308;SDS011;647;48.840;9.314;2023-09-19T05:38:16;56.60;;;2.60;;
1308;SDS011;647;48.840;9.314;2023-09-19T05:40:45;56.90;;;2.40;;
1308;SDS011;647;48.840;9.314;2023-09-19T05:43:13;56.50;;;2.40;;
1308;SDS011;647;48.840;9.314;2023-09-19T05:45:41;56.90;;;2.33;;
1308;SDS011;647;48.840;9.314;2023-09-19T05:48:10;56.27;;;2.20;;
1308;SDS011;647;48.840;9.314;2023-09-19T05:50:38;56.43;;;2.33;;
1308;SDS011;647;48.840;9.314;2023-09-19T05:53:05;56.37;;;2.33;;
1308;SDS011;647;48.840;9.314;2023-09-19T05:55:33;56.40;;;2.37;;
1308;SDS011;647;48.840;9.314;2023-09-19T05:58:00;56.33;;;2.20;;
1308;SDS011;647;48.840;9.314;2023-09-19T06:00:28;56.37;;;2.40;;
1308;SDS011;647;48.840;9.314;2023-09-19T06:02:58;56.37;;;2.40;;
1308;SDS011;647;48.840;9.314;2023-09-19T06:05:26;56.43;;;2.20;;
1308;SDS011;647;48.840;9.314;2023-09-19T06:07:55;56.37;;;2.47;;
1308;SDS011;647;48.840;9.314;2023-09-19T06:10:25;56.17;;;2.40;;
1308;SDS011;647;48.840;9.314;2023-09-19T06:12:52;56.70;;;2.70;;
1308;SDS011;647;48.840;9.314;2023-09-19T06:15:20;56.37;;;2.40;;
1308;SDS011;647;48.840;9.314;2023-09-19T06:17:49;57.57;;;3.00;;
1308;SDS011;647;48.840;9.314;2023-09-19T06:20:18;56.90;;;2.50;;
1308;SDS011;647;48.840;9.314;2023-09-19T06:22:45;56.47;;;2.30;;
1308;SDS011;647;48.840;9.314;2023-09-19T06:25:13;56.70;;;2.60;;
1308;SDS011;647;48.840;9.314;2023-09-19T06:27:44;57.97;;;2.70;;
1308;SDS011;647;48.840;9.314;2023-09-19T06:30:11;56.70;;;2.60;;
1308;SDS011;647;48.840;9.314;2023-09-19T06:32:39;56.70;;;2.30;;
1308;SDS011;647;48.840;9.314;2023-09-19T06:35:09;56.47;;;2.20;;
1308;SDS011;647;48.840;9.314;2023-09-19T06:37:37;56.80;;;2.50;;
1308;SDS011;647;48.840;9.314;2023-09-19T06:40:06;56.47;;;2.20;;
1308;SDS011;647;48.840;9.314;2023-09-19T06:42:35;56.77;;;2.33;;
1308;SDS011;647;48.840;9.314;2023-09-19T06:45:03;57.90;;;2.50;;
1308;SDS011;647;48.840;9.314;2023-09-19T06:47:30;56.70;;;2.63;;
1308;SDS011;647;48.840;9.314;2023-09-19T06:49:57;56.23;;;2.40;;
1308;SDS011;647;48.840;9.314;2023-09-19T06:52:27;56.60;;;2.73;;
1308;SDS011;647;48.840;9.314;2023-09-19T06:54:55;56.90;;;2.40;;
1308;SDS011;647;48.840;9.314;2023-09-19T06:57:23;56.50;;;2.30;;
1308;SDS011;647;48.840;9.314;2023-09-19T06:59:50;56.50;;;2.50;;
1308;SDS011;647;48.840;9.314;2023-09-19T07:02:17;56.57;;;2.57;;
1308;SDS011;647;48.840;9.314;2023-09-19T07:04:47;56.50;;;2.70;;
1308;SDS011;647;48.840;9.314;2023-09-19T07:07:14;56.80;;;2.60;;
1308;SDS011;647;48.840;9.314;2023-09-19T07:09:41;56.30;;;2.20;;
1308;SDS011;647;48.840;9.314;2023-09-19T07:12:10;56.27;;;2.20;;
1308;SDS011;647;48.840;9.314;2023-09-19T07:14:38;55.93;;;2.03;;
1308;SDS011;647;48.840;9.314;2023-09-19T07:17:05;56.60;;;2.40;;
1308;SDS011;647;48.840;9.314;2023-09-19T07:19:32;56.20;;;2.30;;
1308;SDS011;647;48.840;9.314;2023-09-19T07:22:00;56.17;;;2.00;;
1308;SDS011;647;48.840;9.314;2023-09-19T07:24:27;57.20;;;2.60;;
1308;SDS011;647;48.840;9.314;2023-09-19T07:26:54;55.97;;;2.10;;
1308;SDS011;647;48.840;9.314;2023-09-19T07:29:23;57.07;;;2.70;;
1308;SDS011;647;48.840;9.314;2023-09-19T07:31:51;56.40;;;2.40;;
1308;SDS011;647;48.840;9.314;2023-09-19T07:34:18;56.27;;;2.27;;
1308;SDS011;647;48.840;9.314;2023-09-19T07:36:46;56.20;;;2.00;;
1308;SDS011;647;48.840;9.314;2023-09-19T07:39:14;61.70;;;2.40;;
1308;SDS011;647;48.840;9.314;2023-09-19T07:41:41;56.07;;;2.27;;
1308;SDS011;647;48.840;9.314;2023-09-19T07:44:08;56.17;;;2.20;;
1308;SDS011;647;48.840;9.314;2023-09-19T07:46:37;56.30;;;2.17;;
1308;SDS011;647;48.840;9.314;2023-09-19T07:49:04;56.63;;;2.47;;
1308;SDS011;647;48.840;9.314;2023-09-19T07:51:31;56.30;;;2.20;;
1308;SDS011;647;48.840;9.314;2023-09-19T07:53:59;56.47;;;2.27;;
1308;SDS011;647;48.840;9.314;2023-09-19T07:56:26;56.37;;;2.17;;
1308;SDS011;647;48.840;9.314;2023-09-19T07:58:53;57.37;;;2.23;;
1308;SDS011;647;48.840;9.314;2023-09-19T08:01:22;56.40;;;2.27;;
1308;SDS011;647;48.840;9.314;2023-09-19T08:03:53;56.20;;;2.20;;
1308;SDS011;647;48.840;9.314;2023-09-19T08:06:20;56.27;;;2.27;;
1308;SDS011;647;48.840;9.314;2023-09-19T08:08:50;56.20;;;2.03;;
1308;SDS011;647;48.840;9.314;2023-09-19T08:11:18;56.50;;;2.20;;
1308;SDS011;647;48.840;9.314;2023-09-19T08:13:46;56.50;;;2.30;;
1308;SDS011;647;48.840;9.314;2023-09-19T08:16:14;56.30;;;2.23;;
1308;SDS011;647;48.840;9.314;2023-09-19T08:18:43;56.80;;;2.50;;
1308;SDS011;647;48.840;9.314;2023-09-19T08:21:15;56.23;;;2.30;;
1308;SDS011;647;48.840;9.314;2023-09-19T08:23:42;59.03;;;3.87;;
1308;SDS011;647;48.840;9.314;2023-09-19T08:26:09;56.27;;;2.20;;
1308;SDS011;647;48.840;9.314;2023-09-19T08:28:37;56.07;;;2.00;;
1308;SDS011;647;48.840;9.314;2023-09-19T08:31:05;56.30;;;2.40;;
1308;SDS011;647;48.840;9.314;2023-09-19T08:33:34;56.13;;;1.93;;
1308;SDS011;647;48.840;9.314;2023-09-19T08:36:01;56.17;;;2.20;;
1308;SDS011;647;48.840;9.314;2023-09-19T08:38:30;56.17;;;1.97;;
1308;SDS011;647;48.840;9.314;2023-09-19T08:40:58;56.87;;;3.00;;
1308;SDS011;647;48.840;9.314;2023-09-19T08:43:25;56.17;;;2.10;;
1308;SDS011;647;48.840;9.314;2023-09-19T08:45:54;57.93;;;2.73;;
1308;SDS011;647;48.840;9.314;2023-09-19T08:48:24;56.00;;;2.00;;
1308;SDS011;647;48.840;9.314;2023-09-19T08:50:55;56.10;;;1.90;;
1308;SDS011;647;48.840;9.314;2023-09-19T08:53:26;56.13;;;2.37;;
1308;SDS011;647;48.840;9.314;2023-09-19T08:55:58;56.37;;;2.20;;
1308;SDS011;647;48.840;9.314;2023-09-19T08:58:27;56.30;;;1.90;;
1308;SDS011;647;48.840;9.314;2023-09-19T09:00:58;56.80;;;2.00;;
1308;SDS011;647;48.840;9.314;2023-09-19T09:03:26;56.50;;;2.80;;
1308;SDS011;647;48.840;9.314;2023-09-19T09:05:56;56.20;;;2.03;;
1308;SDS011;647;48.840;9.314;2023-09-19T09:08:23;56.20;;;2.10;;
1308;SDS011;647;48.840;9.314;2023-09-19T09:10:50;56.47;;;2.23;;
1308;SDS011;647;48.840;9.314;2023-09-19T09:13:19;56.40;;;2.10;;
1308;SDS011;647;48.840;9.314;2023-09-19T09:15:47;56.40;;;2.00;;
1308;SDS011;647;48.840;9.314;2023-09-19T09:18:15;56.23;;;2.13;;
1308;SDS011;647;48.840;9.314;2023-09-19T09:20:43;56.17;;;2.00;;
1308;SDS011;647;48.840;9.314;2023-09-19T09:23:11;56.20;;;1.90;;
1308;SDS011;647;48.840;9.314;2023-09-19T09:25:48;56.17;;;2.10;;
1308;SDS011;647;48.840;9.314;2023-09-19T09:28:21;56.60;;;2.37;;
1308;SDS011;647;48.840;9.314;2023-09-19T09:30:49;56.23;;;1.90;;
1308;SDS011;647;48.840;9.314;2023-09-19T09:33:16;56.30;;;1.90;;
1308;SDS011;647;48.840;9.314;2023-09-19T09:35:47;56.30;;;2.20;;
1308;SDS011;647;48.840;9.314;2023-09-19T09:38:17;56.00;;;1.93;;
1308;SDS011;647;48.840;9.314;2023-09-19T09:40:48;56.47;;;2.03;;
1308;SDS011;647;48.840;9.314;2023-09-19T09:43:27;55.97;;;1.77;;
1308;SDS011;647;48.840;9.314;2023-09-19T09:46:11;56.10;;;2.00;;
1308;SDS011;647;48.840;9.314;2023-09-19T09:48:55;56.77;;;2.00;;
1308;SDS011;647;48.840;9.314;2023-09-19T09:51:50;56.80;;;2.10;;
1308;SDS011;647;48.840;9.314;2023-09-19T09:54:24;56.60;;;2.20;;
1308;SDS011;647;48.840;9.314;2023-09-19T09:56:59;56.30;;;1.87;;
1308;SDS011;647;48.840;9.314;2023-09-19T09:59:48;56.30;;;2.00;;
1308;SDS011;647;48.840;9.314;2023-09-19T10:02:16;56.07;;;2.10;;
1308;SDS011;647;48.840;9.314;2023-09-19T10:04:50;55.87;;;1.80;;
1308;SDS011;647;48.840;9.314;2023-09-19T10:07:40;55.87;;;2.00;;
1308;SDS011;647;48.840;9.314;2023-09-19T10:10:14;56.07;;;1.93;;
1308;SDS011;647;48.840;9.314;2023-09-19T10:12:47;55.97;;;1.80;;
1308;SDS011;647;48.840;9.314;2023-09-19T10:15:16;56.30;;;2.20;;
1308;SDS011;647;48.840;9.314;2023-09-19T10:17:45;55.93;;;1.90;;
1308;SDS011;647;48.840;9.314;2023-09-19T10:20:13;55.97;;;1.80;;
1308;SDS011;647;48.840;9.314;2023-09-19T10:22:58;56.10;;;2.00;;
1308;SDS011;647;48.840;9.314;2023-09-19T10:25:26;56.23;;;1.87;;
1308;SDS011;647;48.840;9.314;2023-09-19T10:27:55;56.23;;;1.93;;
1308;SDS011;647;48.840;9.314;2023-09-19T10:30:25;56.27;;;2.10;;
1308;SDS011;647;48.840;9.314;2023-09-19T10:32:55;55.83;;;2.00;;
1308;SDS011;647;48.840;9.314;2023-09-19T10:35:24;56.07;;;2.00;;
1308;SDS011;647;48.840;9.314;2023-09-19T10:37:51;56.20;;;2.27;;
1308;SDS011;647;48.840;9.314;2023-09-19T10:40:22;56.60;;;1.80;;
1308;SDS011;647;48.840;9.314;2023-09-19T10:42:55;56.00;;;1.70;;
1308;SDS011;647;48.840;9.314;2023-09-19T10:45:25;55.73;;;1.70;;
1308;SDS011;647;48.840;9.314;2023-09-19T10:47:54;55.93;;;1.70;;
1308;SDS011;647;48.840;9.314;2023-09-19T10:50:22;55.97;;;1.70;;
1308;SDS011;647;48.840;9.314;2023-09-19T10:52:51;55.57;;;1.60;;
1308;SDS011;647;48.840;9.314;2023-09-19T10:55:26;55.43;;;1.70;;
1308;SDS011;647;48.840;9.314;2023-09-19T10:57:55;55.40;;;1.60;;
1308;SDS011;647;48.840;9.314;2023-09-19T11:00:49;55.33;;;1.50;;
1308;SDS011;647;48.840;9.314;2023-09-19T11:03:16;56.30;;;2.00;;
1308;SDS011;647;48.840;9.314;2023-09-19T11:06:00;55.60;;;2.10;;
1308;SDS011;647;48.840;9.314;2023-09-19T11:08:28;55.67;;;1.70;;
1308;SDS011;647;48.840;9.314;2023-09-19T11:10:58;55.43;;;1.47;;
1308;SDS011;647;48.840;9.314;2023-09-19T11:13:29;55.70;;;1.70;;
1308;SDS011;647;48.840;9.314;2023-09-19T11:16:03;55.60;;;1.50;;
1308;SDS011;647;48.840;9.314;2023-09-19T11:26:48;55.90;;;1.60;;
1308;SDS011;647;48.840;9.314;2023-09-19T11:29:26;55.40;;;1.50;;
1308;SDS011;647;48.840;9.314;2023-09-19T11:31:54;55.27;;;1.60;;
1308;SDS011;647;48.840;9.314;2023-09-19T11:34:40;55.40;;;1.57;;
1308;SDS011;647;48.840;9.314;2023-09-19T11:40:06;55.40;;;1.53;;
1308;SDS011;647;48.840;9.314;2023-09-19T11:42:45;55.33;;;1.60;;
1308;SDS011;647;48.840;9.314;2023-09-19T11:48:10;55.37;;;1.50;;
1308;SDS011;647;48.840;9.314;2023-09-19T11:50:40;55.37;;;1.57;;
1308;SDS011;647;48.840;9.314;2023-09-19T11:53:09;55.33;;;1.63;;
1308;SDS011;647;48.840;9.314;2023-09-19T11:55:37;55.43;;;1.60;;
1308;SDS011;647;48.840;9.314;2023-09-19T11:58:05;56.47;;;1.80;;
1308;SDS011;647;48.840;9.314;2023-09-19T12:00:34;55.50;;;1.60;;
1308;SDS011;647;48.840;9.314;2023-09-19T12:03:02;55.43;;;1.60;;
1308;SDS011;647;48.840;9.314;2023-09-19T12:05:34;55.40;;;1.67;;
1308;SDS011;647;48.840;9.314;2023-09-19T12:08:02;55.90;;;1.73;;
1308;SDS011;647;48.840;9.314;2023-09-19T12:10:32;55.27;;;1.53;;
1308;SDS011;647;48.840;9.314;2023-09-19T12:12:59;55.17;;;1.40;;
1308;SDS011;647;48.840;9.314;2023-09-19T12:15:29;55.30;;;1.40;;
1308;SDS011;647;48.840;9.314;2023-09-19T12:18:00;55.13;;;1.50;;
1308;SDS011;647;48.840;9.314;2023-09-19T12:20:41;55.07;;;1.40;;
1308;SDS011;647;48.840;9.314;2023-09-19T12:23:12;55.77;;;1.73;;
1308;SDS011;647;48.840;9.314;2023-09-19T12:25:41;55.20;;;1.50;;
1308;SDS011;647;48.840;9.314;2023-09-19T12:28:11;55.40;;;1.50;;
1308;SDS011;647;48.840;9.314;2023-09-19T12:30:40;55.30;;;1.50;;
1308;SDS011;647;48.840;9.314;2023-09-19T12:33:14;55.10;;;1.50;;
1308;SDS011;647;48.840;9.314;2023-09-19T12:35:41;55.10;;;1.60;;
1308;SDS011;647;48.840;9.314;2023-09-19T12:38:10;55.30;;;1.70;;
1308;SDS011;647;48.840;9.314;2023-09-19T12:40:37;55.23;;;1.60;;
1308;SDS011;647;48.840;9.314;2023-09-19T12:43:07;55.40;;;1.50;;
1308;SDS011;647;48.840;9.314;2023-09-19T12:45:42;55.17;;;1.40;;
1308;SDS011;647;48.840;9.314;2023-09-19T12:48:20;55.50;;;1.67;;
1308;SDS011;647;48.840;9.314;2023-09-19T12:51:03;55.37;;;1.60;;
1308;SDS011;647;48.840;9.314;2023-09-19T12:53:33;55.03;;;1.60;;
1308;SDS011;647;48.840;9.314;2023-09-19T12:56:03;55.57;;;1.60;;
1308;SDS011;647;48.840;9.314;2023-09-19T12:58:33;55.50;;;1.57;;
1308;SDS011;647;48.840;9.314;2023-09-19T13:01:13;55.33;;;1.50;;
1308;SDS011;647;48.840;9.314;2023-09-19T13:03:40;55.50;;;1.70;;
1308;SDS011;647;48.840;9.314;2023-09-19T13:06:07;55.87;;;1.80;;
1308;SDS011;647;48.840;9.314;2023-09-19T13:08:35;55.83;;;1.57;;
1308;SDS011;647;48.840;9.314;2023-09-19T13:11:03;57.33;;;1.87;;
1308;SDS011;647;48.840;9.314;2023-09-19T13:13:34;55.87;;;1.60;;
1308;SDS011;647;48.840;9.314;2023-09-19T13:16:02;55.77;;;1.80;;
1308;SDS011;647;48.840;9.314;2023-09-19T13:18:40;56.00;;;1.70;;
1308;SDS011;647;48.840;9.314;2023-09-19T13:21:08;56.00;;;1.50;;
1308;SDS011;647;48.840;9.314;2023-09-19T13:23:37;55.90;;;1.70;;
1308;SDS011;647;48.840;9.314;2023-09-19T13:26:05;55.33;;;1.50;;
1308;SDS011;647;48.840;9.314;2023-09-19T13:28:33;55.23;;;1.50;;
1308;SDS011;647;48.840;9.314;2023-09-19T13:31:01;56.10;;;1.80;;
1308;SDS011;647;48.840;9.314;2023-09-19T13:33:28;55.83;;;1.70;;
1308;SDS011;647;48.840;9.314;2023-09-19T13:35:57;55.77;;;1.97;;
1308;SDS011;647;48.840;9.314;2023-09-19T13:38:24;55.80;;;1.77;;
1308;SDS011;647;48.840;9.314;2023-09-19T13:40:51;55.77;;;1.60;;
1308;SDS011;647;48.840;9.314;2023-09-19T13:43:18;55.67;;;1.50;;
1308;SDS011;647;48.840;9.314;2023-09-19T13:45:47;55.20;;;1.50;;
1308;SDS011;647;48.840;9.314;2023-09-19T13:48:15;55.70;;;1.70;;
1308;SDS011;647;48.840;9.314;2023-09-19T13:50:45;55.70;;;1.60;;
1308;SDS011;647;48.840;9.314;2023-09-19T13:53:14;55.47;;;1.60;;
1308;SDS011;647;48.840;9.314;2023-09-19T13:55:41;55.90;;;1.50;;
1308;SDS011;647;48.840;9.314;2023-09-19T13:58:08;56.00;;;1.90;;
1308;SDS011;647;48.840;9.314;2023-09-19T14:00:37;55.53;;;1.40;;
1308;SDS011;647;48.840;9.314;2023-09-19T14:03:04;55.47;;;1.60;;
1308;SDS011;647;48.840;9.314;2023-09-19T14:05:31;55.37;;;1.53;;
1308;SDS011;647;48.840;9.314;2023-09-19T14:07:58;55.23;;;1.53;;
1308;SDS011;647;48.840;9.314;2023-09-19T14:10:27;55.60;;;1.60;;
1308;SDS011;647;48.840;9.314;2023-09-19T14:12:55;55.57;;;1.50;;
1308;SDS011;647;48.840;9.314;2023-09-19T14:15:23;55.53;;;1.40;;
1308;SDS011;647;48.840;9.314;2023-09-19T14:17:54;55.97;;;1.60;;
1308;SDS011;647;48.840;9.314;2023-09-19T14:20:22;55.40;;;2.00;;
1308;SDS011;647;48.840;9.314;2023-09-19T14:22:49;55.80;;;1.57;;
1308;SDS011;647;48.840;9.314;2023-09-19T14:25:16;56.20;;;1.80;;
1308;SDS011;647;48.840;9.314;2023-09-19T14:27:46;55.70;;;1.60;;
1308;SDS011;647;48.840;9.314;2023-09-19T14:30:13;55.67;;;1.63;;
1308;SDS011;647;48.840;9.314;2023-09-19T14:32:40;55.87;;;1.70;;
1308;SDS011;647;48.840;9.314;2023-09-19T14:35:08;55.87;;;1.70;;
1308;SDS011;647;48.840;9.314;2023-09-19T14:37:35;55.87;;;1.80;;
1308;SDS011;647;48.840;9.314;2023-09-19T14:40:05;56.07;;;1.80;;
1308;SDS011;647;48.840;9.314;2023-09-19T14:42:34;56.13;;;1.60;;
1308;SDS011;647;48.840;9.314;2023-09-19T14:45:04;55.67;;;1.70;;
1308;SDS011;647;48.840;9.314;2023-09-19T14:47:32;55.57;;;1.70;;
1308;SDS011;647;48.840;9.314;2023-09-19T14:49:59;55.57;;;1.53;;
1308;SDS011;647;48.840;9.314;2023-09-19T14:52:27;55.83;;;1.73;;
1308;SDS011;647;48.840;9.314;2023-09-19T14:54:54;55.60;;;1.73;;
1308;SDS011;647;48.840;9.314;2023-09-19T14:57:21;56.20;;;1.60;;
1308;SDS011;647;48.840;9.314;2023-09-19T14:59:49;55.87;;;1.70;;
1308;SDS011;647;48.840;9.314;2023-09-19T15:02:18;55.90;;;1.60;;
1308;SDS011;647;48.840;9.314;2023-09-19T15:04:45;55.37;;;1.70;;
1308;SDS011;647;48.840;9.314;2023-09-19T15:07:13;55.67;;;1.67;;
1308;SDS011;647;48.840;9.314;2023-09-19T15:09:40;55.80;;;1.70;;
1308;SDS011;647;48.840;9.314;2023-09-19T15:12:08;55.53;;;1.70;;
1308;SDS011;647;48.840;9.314;2023-09-19T15:14:39;56.27;;;1.60;;
1308;SDS011;647;48.840;9.314;2023-09-19T15:17:06;56.50;;;2.03;;
1308;SDS011;647;48.840;9.314;2023-09-19T15:19:35;56.10;;;1.90;;
1308;SDS011;647;48.840;9.314;2023-09-19T15:22:03;56.43;;;2.00;;
1308;SDS011;647;48.840;9.314;2023-09-19T15:24:32;56.50;;;2.00;;
1308;SDS011;647;48.840;9.314;2023-09-19T15:26:58;56.20;;;1.93;;
1308;SDS011;647;48.840;9.314;2023-09-19T15:29:25;56.17;;;2.00;;
1308;SDS011;647;48.840;9.314;2023-09-19T15:31:53;56.10;;;2.10;;
1308;SDS011;647;48.840;9.314;2023-09-19T15:34:22;55.77;;;2.00;;
1308;SDS011;647;48.840;9.314;2023-09-19T15:36:51;56.27;;;1.90;;
1308;SDS011;647;48.840;9.314;2023-09-19T15:39:18;56.47;;;2.13;;
1308;SDS011;647;48.840;9.314;2023-09-19T15:41:47;56.07;;;1.90;;
1308;SDS011;647;48.840;9.314;2023-09-19T15:44:16;55.80;;;1.70;;
1308;SDS011;647;48.840;9.314;2023-09-19T15:46:44;56.10;;;1.80;;